Time;durP1;ratioP1;P1;durP2;ratioP2;P2;SDS_P1;SDS_P2;PMS_P1;PMS_P2;Temp;Humidity;BMP_temperature;BMP_pressure;BME280_temperature;BME280_humidity;BME280_pressure;Samples;Min_cycle;Max_cycle;Signal;HPM_P1;HPM_P2
2021/05/06 00:03:01;;;;;;;7.80;4.93;;;8.00;85.40;;;7.68;72.72;99814.66;5030338;28;20091;-80
2021/05/06 00:34:47;;;;;;;10.32;5.25;;;7.90;86.40;;;7.61;73.42;99786.63;5029755;28;20128;-80
2021/05/06 00:37:23;;;;;;;10.27;5.70;;;7.90;86.30;;;7.63;73.54;99776.44;5029756;28;20107;-80
2021/05/06 00:40:01;;;;;;;10.98;5.80;;;8.00;86.40;;;7.68;72.84;99776.75;5029670;28;20073;-80
2021/05/06 00:43:01;;;;;;;10.75;5.60;;;8.00;86.50;;;7.65;73.21;99777.09;5029261;28;20045;-80
2021/05/06 00:57:28;;;;;;;11.73;6.07;;;7.90;85.20;;;7.55;71.46;99752.16;5023004;28;20077;-80
2021/05/06 01:03:18;;;;;;;11.00;6.03;;;7.80;84.40;;;7.47;71.26;99747.69;5009828;28;20053;-80
2021/05/06 01:06:05;;;;;;;11.45;6.47;;;7.80;84.40;;;7.42;71.52;99745.53;5027194;28;20421;-80
2021/05/06 01:08:47;;;;;;;9.05;5.75;;;7.70;84.80;;;7.42;71.94;99744.66;5027211;28;20053;-79
2021/05/06 01:11:30;;;;;;;11.15;6.45;;;7.70;85.30;;;7.41;72.20;99738.41;5029134;28;20045;-79
2021/05/06 01:14:10;;;;;;;10.30;6.15;;;7.70;85.30;;;7.39;72.46;99729.66;5027447;28;20176;-79
2021/05/06 01:16:48;;;;;;;9.10;5.78;;;7.70;85.40;;;7.41;72.40;99735.72;5029054;28;20045;-79
2021/05/06 01:19:28;;;;;;;11.93;6.18;;;7.70;85.40;;;7.39;71.99;99734.22;5029102;28;20208;-80
2021/05/06 01:22:04;;;;;;;13.35;6.50;;;7.70;85.40;;;7.39;72.12;99721.53;5028710;28;20132;-80
2021/05/06 01:24:47;;;;;;;12.43;6.30;;;7.70;85.60;;;7.40;72.67;99722.34;5029109;28;20542;-79
2021/05/06 01:27:34;;;;;;;11.40;6.85;;;7.70;85.50;;;7.43;72.13;99722.84;5029024;28;20563;-80
2021/05/06 01:30:27;;;;;;;12.23;6.63;;;7.70;85.40;;;7.46;72.11;99721.63;5027648;28;20460;-80
2021/05/06 01:33:14;;;;;;;13.13;7.50;;;7.70;85.40;;;7.44;72.01;99716.41;5027387;28;20053;-80
2021/05/06 01:35:50;;;;;;;12.68;6.78;;;7.70;85.40;;;7.42;72.51;99712.19;5028958;28;20045;-80
2021/05/06 01:38:48;;;;;;;13.05;7.68;;;7.90;85.60;;;7.38;73.06;99702.75;5027529;28;20079;-80
2021/05/06 01:44:31;;;;;;;15.05;7.22;;;7.70;85.60;;;7.40;72.38;99706.13;5027596;28;20053;-80
2021/05/06 01:47:19;;;;;;;10.77;7.13;;;7.70;85.50;;;7.41;72.26;99703.22;5027377;28;20053;-79
2021/05/06 01:58:50;;;;;;;16.67;8.70;;;7.60;85.30;;;7.44;71.90;99691.19;5027174;28;20140;-79
2021/05/06 02:01:29;;;;;;;11.02;7.80;;;7.70;85.40;;;7.45;71.79;99695.59;5028431;28;20056;-79
2021/05/06 02:04:07;;;;;;;11.75;8.45;;;7.60;85.20;;;7.43;71.44;99690.34;5028474;28;20053;-80
2021/05/06 02:06:43;;;;;;;13.55;8.45;;;7.70;85.40;;;7.47;71.58;99687.28;5028689;28;20050;-80
2021/05/06 02:09:38;;;;;;;15.23;9.00;;;7.60;85.20;;;7.44;71.40;99681.22;5027183;28;20054;-80
2021/05/06 02:12:16;;;;;;;15.80;8.88;;;7.70;84.90;;;7.46;71.41;99689.13;5026452;28;20132;-79
2021/05/06 02:14:58;;;;;;;14.65;8.65;;;7.70;84.80;;;7.48;71.62;99689.78;5043598;28;20052;-79
2021/05/06 02:17:44;;;;;;;11.75;8.70;;;7.70;84.60;;;7.49;71.88;99677.94;5028484;28;20045;-79
2021/05/06 02:20:20;;;;;;;12.90;8.68;;;7.70;84.80;;;7.49;70.60;99679.81;5044476;28;20776;-79
2021/05/06 02:22:56;;;;;;;16.48;9.15;;;7.80;84.70;;;7.47;71.24;99684.56;5030575;28;20484;-79
2021/05/06 02:25:31;;;;;;;13.80;9.32;;;7.80;84.70;;;7.47;71.74;99681.88;5032243;28;21004;-79
2021/05/06 02:28:11;;;;;;;13.43;9.07;;;7.80;84.60;;;7.44;71.71;99678.50;5030340;28;20049;-79
2021/05/06 02:30:50;;;;;;;16.30;8.80;;;7.80;84.50;;;7.47;71.85;99681.88;5031900;28;20049;-79
2021/05/06 02:33:28;;;;;;;15.48;9.05;;;7.80;84.30;;;7.48;71.96;99678.13;5031854;28;20054;-79
2021/05/06 02:36:06;;;;;;;12.75;8.27;;;7.90;84.40;;;7.51;71.69;99683.19;5031984;28;20497;-80
2021/05/06 02:38:44;;;;;;;15.13;8.77;;;7.90;84.80;;;7.51;71.45;99678.59;5032129;28;20111;-79
2021/05/06 02:41:16;;;;;;;17.45;8.40;;;7.90;84.60;;;7.49;71.83;99685.22;5031908;28;20057;-79
2021/05/06 02:43:58;;;;;;;13.98;8.05;;;7.90;84.70;;;7.50;71.95;99686.91;5031803;28;20053;-80
2021/05/06 02:46:38;;;;;;;15.30;8.73;;;7.90;84.60;;;7.51;72.27;99680.47;5032016;28;20107;-80
2021/05/06 02:49:14;;;;;;;15.20;7.88;;;7.90;84.60;;;7.50;72.02;99676.06;5031933;28;20049;-80
2021/05/06 02:51:50;;;;;;;11.85;7.78;;;8.00;84.60;;;7.55;72.22;99676.34;5031429;28;20452;-80
2021/05/06 02:54:29;;;;;;;11.80;7.93;;;8.20;84.70;;;7.55;72.22;99665.53;5031625;28;20052;-79
2021/05/06 02:57:10;;;;;;;10.80;6.40;;;8.00;84.70;;;7.59;71.58;99664.13;5029158;28;20041;-80
2021/05/06 03:02:50;;;;;;;11.23;5.70;;;8.00;84.60;;;7.51;72.51;99656.09;5031201;28;20045;-80
2021/05/06 03:05:32;;;;;;;9.45;5.85;;;8.00;84.60;;;7.57;72.53;99656.19;5031336;28;20387;-80
2021/05/06 03:08:20;;;;;;;9.57;5.70;;;8.00;84.80;;;7.56;73.02;99653.69;5031493;28;20055;-80
2021/05/06 03:11:14;;;;;;;11.35;5.78;;;8.00;85.00;;;7.55;72.66;99652.81;5031436;28;20051;-80
2021/05/06 03:22:47;;;;;;;9.25;5.07;;;8.10;85.50;;;7.54;74.05;99650.28;5030972;28;20049;-80
2021/05/06 03:25:23;;;;;;;8.40;4.10;;;8.10;85.60;;;7.57;73.01;99647.22;5031235;28;20038;-79
2021/05/06 03:28:05;;;;;;;9.15;4.50;;;8.00;85.40;;;7.58;73.41;99648.91;5031127;28;20121;-80
2021/05/06 03:42:30;;;;;;;8.43;4.78;;;8.00;85.90;;;7.53;73.16;99640.50;5030384;28;20132;-80
2021/05/06 04:16:59;;;;;;;9.02;4.75;;;7.90;85.70;;;7.46;73.05;99656.66;5030099;28;20054;-79
2021/05/06 04:25:44;;;;;;;10.87;4.53;;;7.90;86.20;;;7.42;74.17;99661.63;5030008;28;20117;-79
2021/05/06 04:35:28;;;;;;;10.13;4.00;;;7.90;86.60;;;7.46;74.46;99666.63;5029912;28;20472;-80
2021/05/06 04:37:14;;;;;;;6.05;3.72;;;7.90;86.90;;;7.50;74.81;99666.09;5029721;28;20049;-79
2021/05/06 04:39:52;;;;;;;9.25;4.30;;;7.90;86.90;;;7.54;74.31;99666.53;5029792;28;20447;-79
2021/05/06 04:45:34;;;;;;;9.98;4.10;;;8.00;86.70;;;7.56;74.22;99659.09;5029645;28;20120;-81
2021/05/06 04:56:47;;;;;;;10.02;3.67;;;8.10;86.90;;;7.60;75.01;99663.13;5029636;28;20045;-89
2021/05/06 05:05:02;;;;;;;8.85;3.95;;;8.10;86.80;;;7.66;74.18;99662.34;5008454;28;20113;-88
2021/05/06 05:07:44;;;;;;;9.63;3.67;;;8.10;86.80;;;7.62;74.74;99663.75;5024548;28;20053;-88
2021/05/06 05:13:38;;;;;;;7.43;3.85;;;8.20;86.70;;;7.66;75.04;99654.25;5005704;28;20559;-89
2021/05/06 05:24:53;;;;;;;11.15;5.70;;;8.30;86.70;;;7.76;74.68;99671.03;5009401;28;20091;-86
2021/05/06 05:27:31;;;;;;;11.00;5.10;;;8.30;86.90;;;7.74;74.76;99667.69;5009181;28;20215;-84
2021/05/06 05:30:07;;;;;;;10.73;6.32;;;8.30;86.70;;;7.80;75.16;99672.34;5009191;28;20050;-88
2021/05/06 05:32:43;;;;;;;11.00;6.05;;;8.30;86.40;;;7.83;74.90;99669.25;5062656;22;20052;-77
2021/05/06 05:35:36;;;;;;;10.48;6.15;;;8.30;86.90;;;7.85;75.11;99668.25;5068739;28;20075;-77
2021/05/06 05:38:19;;;;;;;12.82;5.90;;;8.30;87.00;;;7.84;74.84;99667.38;5068784;28;20048;-77
2021/05/06 05:41:06;;;;;;;10.82;5.93;;;8.40;86.80;;;7.86;74.10;99669.91;5068928;28;20044;-77
2021/05/06 05:43:59;;;;;;;10.52;6.00;;;8.50;86.90;;;7.86;75.30;99680.75;5048376;28;20041;-77
2021/05/06 05:55:23;;;;;;;12.18;6.45;;;8.50;86.60;;;7.90;75.16;99682.03;5034876;28;20606;-76
2021/05/06 05:57:57;;;;;;;10.85;7.35;;;8.50;86.70;;;7.93;74.79;99692.53;5051663;28;20045;-76
2021/05/06 06:00:36;;;;;;;15.25;7.35;;;8.50;86.40;;;7.95;74.77;99685.03;5052242;28;20558;-76
2021/05/06 06:03:15;;;;;;;14.38;7.82;;;8.50;86.70;;;7.94;74.57;99691.47;5014192;28;20056;-77
2021/05/06 06:06:02;;;;;;;13.00;7.88;;;8.50;86.60;;;7.99;74.88;99691.75;5033514;28;20041;-78
2021/05/06 06:08:38;;;;;;;14.70;9.30;;;8.50;86.50;;;7.98;74.67;99690.94;5032666;28;20431;-77
2021/05/06 06:11:16;;;;;;;14.35;9.68;;;8.50;86.40;;;8.01;74.90;99689.69;5028320;28;20049;-78
2021/05/06 06:13:57;;;;;;;19.90;12.75;;;8.60;86.40;;;8.05;73.94;99685.59;5042762;28;20060;-77
2021/05/06 06:16:37;;;;;;;17.23;10.68;;;8.60;86.20;;;8.05;74.24;99693.72;5051723;28;20048;-78
2021/05/06 06:19:17;;;;;;;13.02;8.25;;;8.60;86.40;;;8.03;74.22;99693.91;5052039;28;20045;-77
2021/05/06 06:22:00;;;;;;;18.40;10.50;;;8.70;86.20;;;8.04;73.97;99700.19;5051803;28;20124;-78
2021/05/06 06:24:38;;;;;;;18.00;10.85;;;8.60;86.10;;;8.06;74.77;99694.56;5040857;28;20539;-81
2021/05/06 06:27:20;;;;;;;14.77;11.50;;;8.70;86.20;;;8.06;74.84;99690.00;5032247;28;20048;-80
2021/05/06 06:29:59;;;;;;;14.23;9.80;;;8.70;86.20;;;8.08;74.69;99696.06;5032160;28;20045;-80
2021/05/06 06:32:35;;;;;;;16.27;10.15;;;8.70;86.20;;;8.11;74.95;99692.97;5038295;28;20110;-80
2021/05/06 06:35:14;;;;;;;13.70;9.90;;;8.70;86.30;;;8.13;74.38;99693.63;5051735;28;20033;-80
2021/05/06 06:37:53;;;;;;;15.15;10.27;;;8.70;86.30;;;8.15;75.00;99697.00;5045482;28;20489;-80
2021/05/06 06:40:33;;;;;;;20.95;10.68;;;8.80;86.40;;;8.18;74.81;99695.75;5031858;28;20050;-80
2021/05/06 06:43:12;;;;;;;16.95;10.40;;;8.80;86.40;;;8.18;74.34;99702.00;5013571;28;20532;-80
2021/05/06 06:45:50;;;;;;;16.50;10.55;;;8.80;86.10;;;8.19;74.34;99698.28;5030774;28;20038;-80
2021/05/06 06:48:25;;;;;;;16.23;10.63;;;8.90;86.00;;;8.25;74.98;99693.16;5031608;28;20103;-89
2021/05/06 06:51:00;;;;;;;15.40;10.57;;;8.90;86.10;;;8.27;74.20;99691.91;5031513;28;20044;-80
2021/05/06 06:53:43;;;;;;;17.13;11.20;;;8.90;86.00;;;8.31;74.37;99695.91;5031548;28;20409;-81
2021/05/06 06:56:21;;;;;;;17.02;10.93;;;9.00;86.00;;;8.34;74.24;99686.56;5031604;28;20041;-80
2021/05/06 06:58:57;;;;;;;19.48;12.05;;;9.00;86.00;;;8.37;73.72;99694.31;5048671;28;20048;-80
2021/05/06 07:01:36;;;;;;;19.13;11.98;;;9.00;85.80;;;8.36;73.84;99693.50;5033273;28;20069;-81
2021/05/06 07:04:14;;;;;;;17.42;11.27;;;9.00;85.60;;;8.35;73.59;99696.38;5031467;28;20041;-81
2021/05/06 07:06:52;;;;;;;17.83;11.52;;;9.00;85.60;;;8.33;73.43;99693.84;5028588;28;20051;-79
2021/05/06 07:09:35;;;;;;;19.08;11.55;;;9.00;85.30;;;8.41;74.26;99696.50;5031360;28;20041;-79
2021/05/06 07:12:14;;;;;;;17.13;11.40;;;9.10;85.40;;;8.53;73.92;99687.84;5031039;28;20049;-79
2021/05/06 07:14:52;;;;;;;15.70;10.77;;;9.20;85.30;;;8.57;72.98;99689.16;5031055;28;20099;-78
2021/05/06 07:17:30;;;;;;;16.30;11.52;;;9.30;84.60;;;8.69;73.48;99692.22;5031012;28;20053;-79
2021/05/06 07:20:03;;;;;;;17.00;11.10;;;9.50;84.70;;;8.76;73.84;99688.53;5031241;28;20124;-78
2021/05/06 07:22:38;;;;;;;16.00;11.10;;;9.60;84.30;;;8.80;73.67;99684.41;5030881;28;20046;-78
2021/05/06 07:25:17;;;;;;;18.02;10.13;;;9.70;84.10;;;8.90;73.88;99684.06;5031120;28;20038;-78
2021/05/06 07:27:56;;;;;;;15.18;9.95;;;9.80;84.10;;;8.92;71.97;99692.84;4997737;28;20069;-78
2021/05/06 07:30:31;;;;;;;17.15;11.10;;;9.90;82.80;;;8.90;71.99;99684.06;5031094;28;20497;-79
2021/05/06 07:33:09;;;;;;;21.05;11.20;;;9.80;81.90;;;8.96;71.49;99694.13;5030814;28;20048;-78
2021/05/06 07:35:45;;;;;;;15.40;9.98;;;9.80;81.60;;;8.92;70.25;99698.28;5031036;28;20042;-78
2021/05/06 07:38:23;;;;;;;14.73;10.32;;;9.80;80.60;;;8.91;69.79;99691.19;5030555;28;20041;-78
2021/05/06 07:41:02;;;;;;;14.02;9.30;;;9.80;80.40;;;8.90;70.48;99692.22;5030866;28;20037;-78
2021/05/06 07:43:43;;;;;;;13.05;10.15;;;9.80;80.70;;;8.91;70.41;99696.63;5030597;28;20048;-78
2021/05/06 07:46:15;;;;;;;16.15;10.63;;;9.80;80.90;;;8.96;70.80;99694.13;5030799;28;20041;-78
2021/05/06 07:48:54;;;;;;;18.08;12.50;;;9.90;81.30;;;9.04;71.46;99690.44;5030820;28;20059;-78
2021/05/06 07:51:27;;;;;;;16.38;11.07;;;9.90;81.50;;;8.94;70.37;99690.78;5012663;28;20049;-78
2021/05/06 07:54:06;;;;;;;16.50;10.77;;;9.90;80.70;;;8.83;69.17;99683.16;5030408;28;20061;-78
2021/05/06 07:56:48;;;;;;;17.08;11.45;;;9.90;79.40;;;8.92;70.11;99686.59;5037904;28;20079;-78
2021/05/06 07:59:23;;;;;;;18.40;11.05;;;9.90;80.40;;;9.00;70.62;99684.59;5031933;28;20460;-78
2021/05/06 08:02:03;;;;;;;15.57;10.85;;;9.90;80.50;;;8.95;69.97;99676.19;5029916;28;20041;-79
2021/05/06 08:04:38;;;;;;;16.55;11.85;;;10.00;79.50;;;9.08;70.11;99674.63;5030424;28;20657;-78
2021/05/06 08:07:13;;;;;;;21.25;12.88;;;10.10;79.90;;;9.19;70.96;99674.09;5030300;28;20521;-78
2021/05/06 08:09:51;;;;;;;17.30;11.35;;;10.10;80.70;;;9.22;69.78;99670.16;5029961;28;20387;-78
2021/05/06 08:12:29;;;;;;;18.67;13.15;;;10.10;80.00;;;9.26;70.02;99666.00;5037700;28;20045;-78
2021/05/06 08:15:09;;;;;;;19.42;12.77;;;10.20;80.00;;;9.27;69.98;99668.53;5045334;28;20069;-78
2021/05/06 08:17:49;;;;;;;20.10;12.52;;;10.20;80.10;;;9.30;69.66;99678.97;5041019;28;20060;-78
2021/05/06 08:20:26;;;;;;;20.15;12.80;;;10.30;80.00;;;9.34;69.44;99674.81;5048941;28;20448;-78
2021/05/06 08:23:11;;;;;;;20.20;14.57;;;10.40;79.50;;;9.39;69.72;99677.81;5046711;28;20048;-78
2021/05/06 08:25:50;;;;;;;22.50;14.75;;;10.40;79.70;;;9.44;69.98;99679.91;5046231;28;20698;-78
2021/05/06 08:28:58;;;;;;;23.00;16.17;;;10.50;79.70;;;9.50;69.47;99671.00;5018963;28;20051;-78
2021/05/06 08:31:36;;;;;;;20.77;14.18;;;10.50;79.40;;;9.50;68.34;99678.28;5048194;28;20041;-79
2021/05/06 08:34:11;;;;;;;21.30;15.07;;;10.50;77.70;;;9.53;69.43;99681.44;5031358;28;20057;-78
2021/05/06 08:36:46;;;;;;;18.48;13.75;;;10.60;78.80;;;9.58;69.51;99680.88;5048111;28;20037;-78
2021/05/06 08:39:24;;;;;;;18.65;13.85;;;10.60;78.80;;;9.60;67.57;99684.22;5048876;28;20487;-78
2021/05/06 08:42:03;;;;;;;20.73;13.65;;;10.60;77.60;;;9.58;68.02;99680.88;5046436;28;20071;-79
2021/05/06 08:44:43;;;;;;;19.67;13.07;;;10.60;77.70;;;9.63;68.28;99685.69;5049083;28;20037;-78
2021/05/06 08:47:23;;;;;;;20.52;12.30;;;10.60;77.40;;;9.61;66.96;99685.88;5046878;28;20040;-78
2021/05/06 08:49:59;;;;;;;16.67;12.05;;;10.70;76.80;;;9.59;67.88;99683.38;5039182;28;20052;-79
2021/05/06 08:52:38;;;;;;;17.50;12.80;;;10.70;77.10;;;9.67;67.22;99689.69;5049020;28;20066;-79
2021/05/06 08:55:14;;;;;;;16.80;11.77;;;10.70;77.10;;;9.63;68.06;99683.81;5048908;28;20045;-78
2021/05/06 08:57:49;;;;;;;16.00;10.55;;;10.70;77.50;;;9.68;68.80;99675.91;5048798;28;20049;-79
2021/05/06 09:00:40;;;;;;;15.48;10.02;;;10.70;77.90;;;9.74;69.07;99669.66;5046718;28;20052;-79
2021/05/06 09:03:15;;;;;;;12.80;8.93;;;10.90;77.50;;;9.76;68.47;99678.44;5038495;28;20510;-79
2021/05/06 09:06:28;;;;;;;11.20;8.18;;;10.90;77.40;;;9.85;69.67;99660.13;5029214;28;20501;-78
2021/05/06 09:09:06;;;;;;;10.82;7.40;;;11.00;77.70;;;9.94;67.93;99658.09;5033055;28;20049;-78
2021/05/06 09:11:43;;;;;;;11.07;7.50;;;11.10;76.40;;;9.96;67.09;99645.97;5048819;28;20714;-78
2021/05/06 09:14:21;;;;;;;13.38;8.30;;;11.20;75.90;;;10.00;67.65;99649.13;5048817;28;20072;-78
2021/05/06 09:17:02;;;;;;;9.63;7.90;;;11.20;76.50;;;10.01;67.56;99645.34;5048631;28;20098;-78
2021/05/06 09:19:40;;;;;;;9.73;6.60;;;11.20;76.30;;;10.00;66.75;99649.13;5048955;28;20086;-78
2021/05/06 09:22:33;;;;;;;9.85;6.97;;;11.10;75.90;;;10.00;67.04;99657.28;5048784;28;20052;-76
2021/05/06 09:25:40;;;;;;;10.30;7.90;;;11.10;75.80;;;9.97;67.47;99647.63;5026046;28;20056;-78
2021/05/06 09:28:21;;;;;;;15.25;9.63;;;11.10;76.60;;;9.96;68.56;99650.56;5046085;28;20068;-78
2021/05/06 09:31:04;;;;;;;10.13;7.63;;;11.10;77.10;;;9.98;69.49;99653.91;5030362;28;20053;-79
2021/05/06 09:33:51;;;;;;;13.40;8.82;;;11.00;77.80;;;10.02;69.62;99643.47;5030425;28;20056;-78
2021/05/06 09:36:27;;;;;;;10.60;7.35;;;11.10;78.60;;;10.09;70.98;99647.91;5047788;28;20811;-79
2021/05/06 09:39:06;;;;;;;9.60;7.22;;;11.10;79.40;;;10.15;71.04;99646.25;5048734;28;20459;-78
2021/05/06 09:41:47;;;;;;;12.00;6.10;;;11.20;79.10;;;10.25;70.42;99637.72;5048494;28;20055;-78
2021/05/06 09:44:22;;;;;;;10.77;6.80;;;11.40;78.80;;;10.31;69.28;99639.63;5030784;28;20452;-78
2021/05/06 09:47:14;;;;;;;8.75;5.90;;;11.50;77.30;;;10.39;68.70;99635.88;5048533;28;20075;-78
2021/05/06 09:49:54;;;;;;;11.00;5.80;;;11.60;76.40;;;10.44;67.31;99636.13;5048344;28;20520;-78
2021/05/06 09:52:27;;;;;;;8.30;4.70;;;11.70;75.40;;;10.51;66.05;99636.97;5047983;28;20049;-78
2021/05/06 09:55:05;;;;;;;7.50;5.00;;;11.70;73.50;;;10.55;66.66;99633.63;5027373;28;20111;-79
2021/05/06 09:57:43;;;;;;;8.65;5.13;;;11.80;74.60;;;10.60;65.35;99629.44;5029142;28;20285;-79
2021/05/06 10:00:27;;;;;;;7.20;4.57;;;11.90;72.80;;;10.64;64.66;99626.13;5031547;28;20044;-79
2021/05/06 10:03:22;;;;;;;6.82;4.68;;;12.00;72.60;;;10.69;64.42;99633.66;5047833;28;20600;-79
2021/05/06 10:05:58;;;;;;;8.48;5.10;;;12.00;72.50;;;10.69;63.57;99634.47;5039622;28;20042;-79
2021/05/06 10:08:42;;;;;;;7.22;4.05;;;12.10;71.20;;;10.68;62.96;99624.66;5010804;28;20509;-79
2021/05/06 10:11:21;;;;;;;6.15;4.22;;;12.10;70.60;;;10.64;61.80;99626.13;5043074;28;20044;-79
2021/05/06 10:14:01;;;;;;;6.43;4.50;;;12.10;70.90;;;10.64;62.18;99619.81;5048197;28;20075;-79
2021/05/06 10:16:37;;;;;;;6.15;4.38;;;12.10;69.50;;;10.75;62.97;99616.50;5048235;28;20049;-79
2021/05/06 10:19:16;;;;;;;6.80;4.25;;;12.10;70.00;;;10.85;61.03;99622.38;5048444;28;20044;-79
2021/05/06 10:22:02;;;;;;;6.68;4.00;;;12.20;68.90;;;10.83;59.75;99613.56;5046523;28;20052;-76
2021/05/06 10:24:42;;;;;;;5.57;3.90;;;12.20;66.90;;;10.82;57.32;99624.66;5046633;28;20099;-77
2021/05/06 10:27:23;;;;;;;7.28;4.15;;;12.20;65.60;;;10.82;60.01;99611.91;5048260;28;20049;-76
2021/05/06 10:29:56;;;;;;;6.85;3.70;;;12.20;67.20;;;10.80;56.76;99607.72;5047625;28;20056;-77
2021/05/06 10:32:38;;;;;;;6.25;3.88;;;12.20;64.50;;;10.88;57.97;99600.16;5046387;28;20127;-77
2021/05/06 10:35:18;;;;;;;5.60;3.75;;;12.30;65.80;;;10.94;58.49;99604.75;5042792;28;20045;-77
2021/05/06 10:37:58;;;;;;;5.55;3.80;;;12.30;65.00;;;10.99;58.36;99606.03;5047290;28;20432;-77
2021/05/06 10:40:41;;;;;;;5.20;3.40;;;12.40;65.50;;;10.98;55.21;99601.63;5047915;28;20041;-77
2021/05/06 10:43:33;;;;;;;5.55;3.45;;;12.40;63.60;;;11.07;57.57;99595.75;5051415;28;20037;-77
2021/05/06 10:46:13;;;;;;;5.68;3.45;;;12.40;64.10;;;11.12;57.54;99597.88;5051834;28;20467;-77
2021/05/06 10:49:07;;;;;;;6.93;3.30;;;12.50;63.60;;;11.21;58.10;99582.97;5051846;28;20493;-77
2021/05/06 10:52:00;;;;;;;7.65;3.22;;;12.60;63.00;;;11.34;57.82;99582.94;5051087;28;20503;-77
2021/05/06 10:54:55;;;;;;;5.70;3.63;;;12.70;64.20;;;11.37;56.88;99580.88;5049580;28;20033;-77
2021/05/06 10:57:38;;;;;;;6.80;3.33;;;12.90;64.60;;;11.40;55.99;99574.97;5012227;28;20056;-78
2021/05/06 11:00:29;;;;;;;8.30;3.15;;;12.80;62.30;;;11.46;57.08;99574.09;5044561;28;20048;-77
2021/05/06 11:03:08;;;;;;;7.50;3.38;;;12.90;63.20;;;11.53;56.25;99574.94;5049114;28;20116;-77
2021/05/06 11:05:58;;;;;;;5.75;3.40;;;12.90;62.00;;;11.55;54.53;99567.38;5050154;28;20040;-78
2021/05/06 11:08:35;;;;;;;6.20;3.38;;;13.00;61.30;;;11.57;55.54;99567.16;5048781;28;20045;-77
2021/05/06 11:11:26;;;;;;;6.15;3.03;;;13.00;61.20;;;11.63;55.04;99569.88;5051075;28;20047;-77
2021/05/06 11:14:14;;;;;;;6.85;3.67;;;13.10;61.00;;;11.51;52.15;99566.97;5050354;28;20052;-77
2021/05/06 11:17:25;;;;;;;5.38;3.00;;;13.00;59.10;;;11.50;54.45;99565.31;5048117;28;20045;-77
2021/05/06 11:20:01;;;;;;;6.20;3.03;;;13.00;61.30;;;11.49;53.53;99560.06;5031403;28;20056;-77
2021/05/06 11:23:03;;;;;;;5.15;2.80;;;13.00;59.50;;;11.44;52.48;99552.56;5043830;28;20283;-77
2021/05/06 11:26:16;;;;;;;5.90;3.20;;;12.90;59.00;;;11.47;54.09;99548.56;5010396;28;20045;-77
2021/05/06 11:28:56;;;;;;;6.50;2.95;;;12.90;60.00;;;11.46;53.43;99536.81;5050466;28;20060;-76
2021/05/06 11:31:54;;;;;;;5.18;2.75;;;12.90;59.40;;;11.48;51.92;99533.88;5039279;28;20045;-76
2021/05/06 11:34:52;;;;;;;5.15;2.97;;;12.90;57.90;;;11.57;52.79;99532.56;5039422;28;20041;-76
2021/05/06 11:37:30;;;;;;;5.75;3.30;;;13.00;58.70;;;11.52;51.22;99529.69;5034074;28;20045;-77
2021/05/06 11:40:18;;;;;;;7.57;3.53;;;13.00;57.30;;;11.52;53.54;99518.78;5046926;28;20053;-77
2021/05/06 11:42:56;;;;;;;4.80;2.95;;;13.00;59.40;;;11.56;54.70;99522.75;5030545;28;20493;-77
2021/05/06 11:45:38;;;;;;;4.97;3.13;;;13.00;59.80;;;11.59;52.49;99516.84;5024378;28;20090;-76
2021/05/06 11:48:17;;;;;;;6.70;2.60;;;13.00;57.90;;;11.63;52.34;99514.53;5050529;28;20131;-77
2021/05/06 11:50:55;;;;;;;6.03;3.08;;;13.00;57.20;;;11.65;50.94;99512.41;5047525;28;20044;-80
2021/05/06 11:53:27;;;;;;;5.47;2.30;;;13.10;57.80;;;11.69;51.83;99500.03;5049815;28;20036;-81
2021/05/06 11:56:12;;;;;;;4.88;1.80;;;13.10;57.20;;;11.77;51.11;99491.63;5049881;28;20041;-80
2021/05/06 11:58:48;;;;;;;4.32;2.00;;;13.20;56.50;;;11.88;51.03;99495.53;5050579;28;20576;-82
2021/05/06 12:01:32;;;;;;;4.00;1.88;;;13.30;56.10;;;11.95;48.27;99493.63;5042109;28;20772;-79
2021/05/06 12:04:08;;;;;;;4.45;1.70;;;13.30;54.30;;;12.05;51.23;99479.50;5030503;28;20061;-80
2021/05/06 12:06:44;;;;;;;6.00;2.10;;;13.40;55.80;;;12.06;50.84;99484.75;5043082;28;20508;-80
2021/05/06 12:09:31;;;;;;;4.65;2.13;;;13.50;56.00;;;12.05;51.05;99479.50;5035378;28;20057;-80
2021/05/06 12:12:06;;;;;;;5.20;1.55;;;13.50;54.80;;;12.04;48.72;99478.69;5049400;28;20049;-80
2021/05/06 12:14:45;;;;;;;5.90;1.60;;;13.50;54.50;;;12.06;48.90;99476.56;5049148;28;20040;-79
2021/05/06 12:17:27;;;;;;;4.93;2.10;;;13.60;53.90;;;11.96;48.05;99470.78;5032479;28;20659;-79
2021/05/06 12:20:05;;;;;;;4.80;2.50;;;13.50;54.00;;;11.98;50.15;99465.94;5030136;28;20049;-82
2021/05/06 12:22:42;;;;;;;5.72;1.98;;;13.50;54.70;;;11.91;47.27;99462.41;5043273;28;20053;-81
2021/05/06 12:25:19;;;;;;;4.28;2.03;;;13.50;51.80;;;11.90;48.44;99464.31;5035692;28;20050;-80
2021/05/06 12:27:58;;;;;;;4.97;2.03;;;13.40;54.10;;;11.92;48.21;99475.00;5049817;28;20574;-79
2021/05/06 12:30:36;;;;;;;6.75;2.30;;;13.40;53.50;;;11.91;49.97;99473.31;5049759;28;20049;-79
2021/05/06 12:33:15;;;;;;;4.57;1.80;;;13.40;54.90;;;11.91;49.58;99465.97;5049194;28;20045;-79
2021/05/06 12:36:01;;;;;;;7.22;2.00;;;13.40;54.20;;;11.90;48.82;99464.31;5028012;28;20041;-79
2021/05/06 12:38:40;;;;;;;4.00;2.10;;;13.40;54.70;;;11.89;48.16;99459.03;5029771;28;20513;-79
2021/05/06 12:41:14;;;;;;;3.95;2.00;;;13.40;54.00;;;11.89;48.13;99453.59;5047491;28;20100;-79
2021/05/06 12:44:02;;;;;;;4.55;2.00;;;13.30;54.00;;;11.90;48.99;99453.41;5049055;28;20579;-79
2021/05/06 12:46:35;;;;;;;5.22;2.20;;;13.40;53.70;;;11.96;50.47;99453.59;5047543;28;20568;-79
2021/05/06 12:49:27;;;;;;;4.40;2.45;;;13.40;54.80;;;11.96;49.52;99434.50;5049237;28;20111;-79
2021/05/06 12:52:05;;;;;;;7.25;2.78;;;13.40;53.40;;;11.95;49.45;99430.94;5048914;28;20489;-79
2021/05/06 12:54:44;;;;;;;4.18;1.98;;;13.30;54.20;;;11.98;49.96;99435.94;5048953;28;20396;-79
2021/05/06 12:57:26;;;;;;;5.30;2.20;;;13.40;54.70;;;12.01;50.14;99431.94;5049138;28;20045;-79
2021/05/06 13:00:26;;;;;;;4.90;2.28;;;13.40;55.20;;;11.97;47.30;99426.09;5049366;28;20052;-79
2021/05/06 13:03:11;;;;;;;3.95;2.00;;;13.40;54.30;;;11.99;47.79;99423.13;5028962;28;20049;-79
2021/05/06 13:05:53;;;;;;;4.82;2.10;;;13.40;53.30;;;12.06;48.46;99427.50;5042503;28;20103;-79
2021/05/06 13:08:40;;;;;;;;;;;13.50;54.60;;;12.09;47.31;99416.16;5045489;28;20045;-79
2021/05/06 13:11:22;;;;;;;5.05;2.17;;;13.50;54.70;;;12.07;46.42;99415.53;5042376;28;20393;-79
2021/05/06 13:14:07;;;;;;;4.28;2.22;;;13.50;52.10;;;12.10;47.16;99412.34;5045117;28;20401;-80
2021/05/06 13:16:51;;;;;;;5.47;2.13;;;13.60;52.80;;;12.13;47.89;99402.91;5048345;28;20037;-79
2021/05/06 13:19:37;;;;;;;4.38;2.22;;;13.60;53.40;;;12.06;46.36;99408.41;5048694;28;20053;-79
2021/05/06 13:22:18;;;;;;;6.88;2.28;;;13.60;53.10;;;12.08;46.84;99397.28;5048639;28;20056;-79
2021/05/06 13:25:00;;;;;;;4.40;1.90;;;13.50;52.50;;;12.10;45.56;99393.25;5046551;28;20057;-79
2021/05/06 13:27:34;;;;;;;11.88;2.70;;;13.60;52.00;;;12.09;45.86;99391.59;5048581;28;20036;-79
2021/05/06 13:30:13;;;;;;;8.90;2.22;;;13.50;52.00;;;12.11;47.70;99389.50;5048824;28;20128;-80
2021/05/06 13:32:45;;;;;;;3.75;2.05;;;13.60;53.20;;;12.14;46.20;99382.75;5048437;28;20044;-79
2021/05/06 13:35:22;;;;;;;4.00;2.08;;;13.60;52.30;;;12.15;47.19;99391.75;5048678;28;20033;-79
2021/05/06 13:38:02;;;;;;;5.97;2.40;;;13.60;53.10;;;12.12;47.00;99377.50;5047971;28;20045;-79
2021/05/06 13:40:38;;;;;;;4.70;1.97;;;13.60;52.60;;;12.11;46.09;99380.47;5048706;28;20047;-79
2021/05/06 13:43:13;;;;;;;3.75;2.03;;;13.50;51.40;;;12.11;46.45;99375.03;5048483;28;20280;-79
2021/05/06 13:45:48;;;;;;;5.80;2.40;;;13.50;53.00;;;12.07;47.14;99374.63;5047589;28;20493;-79
2021/05/06 13:48:26;;;;;;;5.93;2.17;;;13.60;53.40;;;12.09;47.08;99375.25;5048740;28;20049;-78
2021/05/06 13:51:04;;;;;;;8.00;2.38;;;13.50;53.40;;;12.08;45.93;99370.00;5048220;28;20049;-79
2021/05/06 13:53:40;;;;;;;7.25;2.45;;;13.40;52.00;;;12.06;47.06;99372.94;5048118;28;20052;-78
2021/05/06 13:56:18;;;;;;;4.85;2.47;;;13.40;53.10;;;12.00;46.02;99364.84;5047324;28;20041;-79
2021/05/06 13:58:58;;;;;;;7.07;2.33;;;13.40;53.10;;;12.02;47.63;99368.16;5047188;28;20067;-79
2021/05/06 14:01:36;;;;;;;4.55;2.20;;;13.40;53.90;;;12.04;47.75;99355.97;5038273;28;20044;-79